Time;durP1;ratioP1;P1;durP2;ratioP2;P2;SDS_P1;SDS_P2;PMS_P1;PMS_P2;Temp;Humidity;BMP_temperature;BMP_pressure;BME280_temperature;BME280_humidity;BME280_pressure;Samples;Min_cycle;Max_cycle;Signal;HPM_P1;HPM_P2
2022/07/09 00:01:26;;;;;;;8.30;4.05;;;14.60;81.30;;;;;;4987298;28;20038;-68
2022/07/09 00:03:52;;;;;;;11.80;4.05;;;14.60;81.40;;;;;;4978328;28;20023;-68
2022/07/09 00:06:18;;;;;;;7.65;4.28;;;14.60;81.50;;;;;;4990633;28;20019;-68
2022/07/09 00:08:43;;;;;;;9.85;3.80;;;14.60;81.60;;;;;;4981498;28;20149;-68
2022/07/09 00:11:09;;;;;;;9.68;4.43;;;14.60;81.60;;;;;;4983478;28;20094;-68
2022/07/09 00:13:35;;;;;;;8.68;3.95;;;14.60;81.70;;;;;;4987491;28;20531;-68
2022/07/09 00:16:00;;;;;;;13.70;4.35;;;14.60;81.90;;;;;;4977710;28;20074;-66
2022/07/09 00:18:26;;;;;;;9.90;4.68;;;14.50;82.20;;;;;;4987575;28;20058;-68
2022/07/09 00:20:54;;;;;;;8.95;4.72;;;14.50;82.30;;;;;;4982808;28;20529;-68
2022/07/09 00:23:20;;;;;;;14.40;4.28;;;14.50;82.40;;;;;;4982119;28;20040;-68
2022/07/09 00:25:45;;;;;;;8.73;4.40;;;14.40;82.70;;;;;;4990280;28;20138;-68
2022/07/09 00:28:11;;;;;;;6.03;3.97;;;;;;;;;;4977995;28;20032;-68
2022/07/09 00:30:38;;;;;;;7.63;4.47;;;;;;;;;;4987908;28;20054;-68
2022/07/09 00:33:04;;;;;;;9.43;4.30;;;;;;;;;;4983080;28;20062;-69
2022/07/09 00:35:30;;;;;;;6.78;4.53;;;;;;;;;;4980654;28;20449;-69
2022/07/09 00:37:56;;;;;;;12.13;5.07;;;;;;;;;;4990116;28;20034;-68
2022/07/09 00:40:22;;;;;;;11.20;5.03;;;;;;;;;;4978531;28;20117;-68
2022/07/09 00:42:48;;;;;;;14.45;5.15;;;;;;;;;;4985980;28;20102;-68
2022/07/09 00:45:17;;;;;;;8.02;4.07;;;;;;;;;;4985961;28;20437;-67
2022/07/09 00:47:43;;;;;;;9.82;5.03;;;;;;;;;;4978606;28;20027;-68
2022/07/09 00:50:09;;;;;;;6.90;4.65;;;;;;;;;;4989671;28;20495;-68
2022/07/09 00:52:35;;;;;;;10.13;4.55;;;;;;;;;;4980600;28;20061;-68
2022/07/09 00:55:02;;;;;;;12.15;5.28;;;;;;;;;;4984554;28;20299;-68
2022/07/09 00:57:29;;;;;;;5.85;4.63;;;;;;;;;;4986954;28;20026;-67
2022/07/09 00:59:55;;;;;;;9.35;4.88;;;;;;;;;;4977154;28;20031;-68
2022/07/09 01:02:22;;;;;;;11.73;4.47;;;;;;;;;;4989451;28;20019;-68
2022/07/09 01:04:48;;;;;;;8.40;5.07;;;;;;;;;;4980470;28;20019;-68
2022/07/09 01:07:14;;;;;;;9.93;5.15;;;;;;;;;;4981621;28;20034;-67
2022/07/09 01:09:41;;;;;;;9.63;5.03;;;;;;;;;;4988300;28;20125;-68
2022/07/09 01:12:07;;;;;;;7.35;4.53;;;;;;;;;;4976692;28;20495;-67
2022/07/09 01:14:33;;;;;;;9.82;5.00;;;;;;;;;;4987232;28;20098;-67
2022/07/09 01:17:00;;;;;;;10.30;5.28;;;;;;;;;;4982777;28;20064;-66
2022/07/09 01:19:26;;;;;;;6.43;4.38;;;;;;;;;;4979866;28;20041;-67
2022/07/09 01:21:52;;;;;;;9.57;4.53;;;;;;;;;;4989580;28;20277;-68
2022/07/09 01:24:18;;;;;;;6.95;4.57;;;;;;;;;;4977193;28;20485;-68
2022/07/09 01:26:44;;;;;;;6.78;4.82;;;;;;;;;;4985623;28;20091;-68
2022/07/09 01:29:10;;;;;;;9.15;4.78;;;;;;;;;;4983727;28;20023;-67
2022/07/09 01:31:36;;;;;;;13.88;5.32;;;;;;;;;;4978569;28;20449;-67
2022/07/09 01:34:02;;;;;;;9.70;4.80;;;;;;;;;;4989456;28;20783;-68
2022/07/09 01:36:28;;;;;;;7.72;4.95;;;;;;;;;;4978514;28;20038;-68
2022/07/09 01:38:54;;;;;;;11.27;4.93;;;;;;;;;;4983933;28;20031;-67
2022/07/09 01:41:20;;;;;;;9.85;5.13;;;;;;;;;;4985165;28;20041;-68
2022/07/09 01:43:46;;;;;;;5.78;4.25;;;;;;;;;;4977079;28;20034;-67
2022/07/09 01:46:12;;;;;;;9.65;5.13;;;;;;;;;;4989281;28;20053;-68
2022/07/09 01:48:42;;;;;;;30.25;5.38;;;;;;;;;;4979145;28;20089;-68
2022/07/09 01:51:08;;;;;;;7.07;4.35;;;;;;;;;;4982332;28;20311;-67
2022/07/09 01:53:34;;;;;;;14.93;5.18;;;;;;;;;;4986999;28;20033;-67
2022/07/09 01:56:04;;;;;;;8.18;4.78;;;;;;;;;;4976217;28;20050;-67
2022/07/09 01:58:30;;;;;;;12.07;5.13;;;;;;;;;;4987226;28;20026;-67
2022/07/09 02:00:56;;;;;;;8.45;5.03;;;;;;;;;;4981194;28;20072;-67
2022/07/09 02:03:22;;;;;;;12.63;4.95;;;;;;;;;;4980318;28;20461;-68
2022/07/09 02:05:49;;;;;;;9.57;5.18;;;;;;;;;;4988595;28;20386;-66
2022/07/09 02:08:15;;;;;;;11.35;5.88;;;;;;;;;;4975448;28;20508;-68
2022/07/09 02:10:41;;;;;;;11.00;5.57;;;;;;;;;;4985220;28;20030;-67
2022/07/09 02:13:07;;;;;;;7.40;5.03;;;;;;;;;;4982785;28;20049;-67
2022/07/09 02:15:33;;;;;;;9.30;5.32;;;;;;;;;;4978130;28;20070;-66
2022/07/09 02:17:59;;;;;;;8.52;5.10;;;;;;;;;;4986970;28;20515;-67
2022/07/09 02:20:25;;;;;;;11.45;5.50;;;;;;;;;;4976147;28;20026;-68
2022/07/09 02:22:51;;;;;;;8.70;5.50;;;;;;;;;;4982368;28;20113;-68
2022/07/09 02:25:18;;;;;;;7.53;4.68;;;;;;;;;;4982692;28;20025;-68
2022/07/09 02:27:44;;;;;;;7.00;4.40;;;;;;;;;;4976472;28;20023;-67
2022/07/09 02:30:10;;;;;;;7.60;5.20;;;;;;;;;;4988197;28;20026;-67
2022/07/09 02:32:38;;;;;;;8.27;5.00;;;;;;;;;;4978251;28;20551;-68
2022/07/09 02:35:04;;;;;;;11.02;4.88;;;;;;;;;;4981742;28;20396;-67
2022/07/09 02:37:30;;;;;;;6.93;4.70;;;;;;;;;;4985178;28;20789;-68
2022/07/09 02:39:56;;;;;;;8.65;5.00;;;;;;;;;;4975442;28;20030;-68
2022/07/09 02:42:22;;;;;;;6.97;4.43;;;;;;;;;;4987493;28;20087;-67
2022/07/09 02:44:48;;;;;;;7.93;4.78;;;;;;;;;;4980140;28;20018;-67
2022/07/09 02:47:14;;;;;;;10.10;4.88;;;;;;;;;;4980221;28;20551;-68
2022/07/09 02:49:40;;;;;;;8.57;4.40;;;;;;;;;;4987042;28;20023;-68
2022/07/09 02:52:06;;;;;;;7.68;4.15;;;;;;;;;;4975464;28;20031;-67
2022/07/09 02:54:33;;;;;;;8.75;4.05;;;;;;;;;;4986249;28;20222;-67
2022/07/09 02:56:59;;;;;;;5.88;4.00;;;;;;;;;;4981208;28;20416;-65
2022/07/09 02:59:25;;;;;;;5.13;3.88;;;;;;;;;;4978727;28;20037;-67
2022/07/09 03:01:51;;;;;;;10.25;4.10;;;;;;;;;;4987929;28;20023;-67
2022/07/09 03:04:17;;;;;;;11.27;4.53;;;;;;;;;;4975791;28;20439;-67
2022/07/09 03:06:44;;;;;;;9.10;4.60;;;;;;;;;;4982846;28;20023;-67
2022/07/09 03:09:10;;;;;;;9.77;4.70;;;;;;;;;;4982478;28;20045;-66
2022/07/09 03:11:36;;;;;;;8.93;4.22;;;;;;;;;;4977363;28;20473;-67
2022/07/09 03:14:02;;;;;;;8.20;4.28;;;;;;;;;;4991736;28;20027;-67
2022/07/09 03:16:28;;;;;;;10.63;4.50;;;;;;;;;;4979597;28;20542;-67
2022/07/09 03:18:54;;;;;;;9.13;4.97;;;;;;;;;;4985039;28;20042;-67
2022/07/09 03:21:20;;;;;;;8.13;4.40;;;;;;;;;;4987773;28;20385;-67
2022/07/09 03:23:46;;;;;;;7.80;4.70;;;;;;;;;;4979527;28;20029;-67
2022/07/09 03:26:13;;;;;;;6.47;4.38;;;;;;;;;;4991635;28;20018;-67
2022/07/09 03:28:39;;;;;;;6.95;4.10;;;;;;;;;;4981777;28;20014;-67
2022/07/09 03:31:05;;;;;;;8.15;4.53;;;;;;;;;;4985304;28;20481;-68
2022/07/09 03:33:30;;;;;;;8.35;4.43;;;;;;;;;;4989057;28;20038;-68
2022/07/09 03:35:57;;;;;;;7.15;4.00;;;;;;;;;;4978808;28;20031;-68
2022/07/09 03:38:23;;;;;;;5.18;3.50;;;;;;;;;;4990249;28;20069;-68
2022/07/09 03:40:49;;;;;;;7.15;3.22;;;;;;;;;;4982057;28;20053;-68
2022/07/09 03:43:15;;;;;;;8.38;2.88;;;;;;;;;;4983694;28;20456;-68
2022/07/09 03:45:41;;;;;;;8.13;2.60;;;;;;;;;;4990480;28;20014;-68
2022/07/09 03:48:07;;;;;;;6.68;2.42;;;;;;;;;;4978368;28;20023;-68
2022/07/09 03:50:33;;;;;;;6.32;2.33;;;;;;;;;;4988893;28;20023;-68
2022/07/09 03:52:59;;;;;;;4.75;2.15;;;;;;;;;;4984481;28;20080;-68
2022/07/09 03:55:25;;;;;;;3.83;2.00;;;;;;;;;;4981681;28;20053;-69
2022/07/09 03:57:51;;;;;;;4.50;1.63;;;;;;;;;;4989505;28;20034;-67
2022/07/09 04:00:17;;;;;;;5.38;2.05;;;;;;;;;;4977279;28;20029;-68
2022/07/09 04:02:43;;;;;;;3.40;1.60;;;;;;;;;;4987174;28;20030;-67
2022/07/09 04:05:09;;;;;;;3.75;1.77;;;;;;;;;;4985615;28;20452;-66
2022/07/09 04:07:36;;;;;;;4.53;1.77;;;;;;;;;;4980070;28;20027;-67
2022/07/09 04:10:02;;;;;;;4.40;1.60;;;;;;;;;;4990814;28;20030;-66
2022/07/09 04:12:28;;;;;;;5.25;1.75;;;;;;;;;;4980057;28;20022;-66
2022/07/09 04:14:54;;;;;;;7.03;2.30;;;;;;;;;;4985683;28;20023;-66
2022/07/09 04:17:20;;;;;;;7.95;2.13;;;;;;;;;;4986403;28;20115;-66
2022/07/09 04:19:46;;;;;;;5.55;1.73;;;;;;;;;;5014665;23;20050;-74
2022/07/09 04:22:12;;;;;;;8.23;2.67;;;;;;;;;;4993905;28;20084;-73
2022/07/09 04:24:38;;;;;;;2.90;2.00;;;;;;;;;;4993479;28;20023;-73
2022/07/09 04:27:04;;;;;;;6.47;2.13;;;;;;;;;;4993993;28;20045;-73
2022/07/09 04:29:30;;;;;;;6.28;2.10;;;;;;;;;;4992621;28;20029;-73
2022/07/09 04:31:56;;;;;;;3.10;1.45;;;;;;;;;;4992500;28;20031;-74
2022/07/09 04:34:22;;;;;;;5.13;1.88;;;;;;;;;;4994089;28;20050;-74
2022/07/09 04:36:49;;;;;;;7.35;2.38;;;;;;;;;;4993851;28;20030;-74
2022/07/09 04:39:15;;;;;;;4.97;2.17;;;;;;;;;;4993504;28;20423;-74
2022/07/09 04:41:41;;;;;;;6.43;1.98;;;;;;;;;;4993848;28;20033;-74
2022/07/09 04:44:07;;;;;;;4.90;2.17;;;;;;;;;;4993846;28;20073;-74
2022/07/09 04:46:33;;;;;;;5.28;1.90;;;;;;;;;;4993651;28;20507;-74
2022/07/09 04:48:59;;;;;;;5.95;2.28;;;;;;;;;;4992012;28;20057;-73
2022/07/09 04:51:25;;;;;;;4.88;2.53;;;;;;;;;;4993529;28;20127;-73
2022/07/09 04:53:51;;;;;;;6.97;2.17;;;;;;;;;;4992119;28;20034;-74
2022/07/09 04:56:17;;;;;;;5.80;2.03;;;;;;;;;;4993472;28;20039;-74
2022/07/09 04:58:52;;;;;;;6.20;2.13;;;;;;;;;;4992974;28;20487;-73
2022/07/09 05:01:19;;;;;;;7.55;2.10;;;;;;;;;;4991777;28;20033;-73
2022/07/09 05:03:46;;;;;;;7.10;2.33;;;;;;;;;;4993379;28;20022;-73
2022/07/09 05:06:12;;;;;;;2.95;1.85;;;;;;;;;;4993229;28;20026;-73
2022/07/09 05:08:39;;;;;;;6.03;1.65;;;;;;;;;;4993124;28;20021;-73
2022/07/09 05:11:05;;;;;;;8.32;3.83;;;;;;;;;;4993273;28;20073;-75
2022/07/09 05:13:31;;;;;;;12.57;4.53;;;;;;;;;;4993256;28;20026;-74
2022/07/09 05:15:57;;;;;;;55.42;28.25;;;;;;;;;;4993272;28;20036;-76
2022/07/09 05:18:23;;;;;;;20.83;9.13;;;;;;;;;;4992666;28;20030;-74
2022/07/09 05:20:49;;;;;;;12.93;5.50;;;;;;;;;;4993011;28;20472;-74
2022/07/09 05:23:15;;;;;;;7.28;2.53;;;;;;;;;;4991665;28;20030;-76
2022/07/09 05:25:41;;;;;;;8.60;2.92;;;;;;;;;;4992840;28;20022;-75
2022/07/09 05:28:08;;;;;;;6.57;2.70;;;;;;;;;;4992661;28;20022;-75
2022/07/09 05:30:37;;;;;;;10.73;2.75;;;;;;;;;;4991702;28;20176;-76
2022/07/09 05:33:03;;;;;;;5.72;2.28;;;;;;;;;;4992915;28;20022;-76
2022/07/09 05:35:29;;;;;;;8.25;2.13;;;;;;;;;;4992526;28;20037;-76
2022/07/09 05:37:55;;;;;;;8.05;2.42;;;;;;;;;;4992600;28;20473;-76
2022/07/09 05:40:21;;;;;;;7.65;1.83;;;;;;;;;;4991648;28;20030;-75
2022/07/09 05:42:47;;;;;;;7.28;1.88;;;;;;;;;;4993153;28;20489;-75
2022/07/09 05:45:13;;;;;;;10.18;2.25;;;;;;;;;;4992334;28;20066;-72
2022/07/09 05:47:39;;;;;;;6.80;2.30;;;;;;;;;;4992299;28;20029;-74
2022/07/09 05:50:06;;;;;;;4.45;1.70;;;;;;;;;;4991916;28;20035;-74
2022/07/09 05:52:32;;;;;;;8.95;2.10;;;;;;;;;;4992427;28;20090;-74
2022/07/09 05:54:58;;;;;;;8.95;2.15;;;;;;;;;;4992588;28;20035;-74
2022/07/09 05:57:25;;;;;;;7.32;2.03;;;;;;;;;;4992283;28;20019;-75
2022/07/09 05:59:51;;;;;;;5.75;2.20;;;;;;;;;;4991616;28;20030;-75
2022/07/09 06:02:18;;;;;;;7.20;2.35;;;;;;;;;;4992054;28;20045;-75
2022/07/09 06:04:44;;;;;;;7.15;1.95;;;;;;;;;;4992153;28;20018;-75
2022/07/09 06:07:10;;;;;;;6.13;2.10;;;;;;;;;;4992098;28;20588;-75
2022/07/09 06:09:36;;;;;;;3.20;1.55;;;;;;;;;;4992134;28;20030;-76
2022/07/09 06:12:02;;;;;;;8.45;2.22;;;;;;;;;;4992433;28;20030;-76
2022/07/09 06:14:28;;;;;;;8.50;1.90;;;;;;;;;;4991873;28;20432;-74
2022/07/09 06:16:55;;;;;;;2.25;1.40;;;;;;;;;;4992101;28;20046;-75
2022/07/09 06:19:21;;;;;;;6.35;1.73;;;;;;;;;;4991556;28;20042;-75
2022/07/09 06:21:47;;;;;;;4.95;1.58;;;;;;;;;;4991828;28;20034;-75
2022/07/09 06:24:13;;;;;;;5.97;1.67;;;;;;;;;;4991850;28;20022;-74
2022/07/09 06:26:39;;;;;;;5.07;2.15;;;;;;;;;;4992186;28;20029;-75
2022/07/09 06:29:05;;;;;;;5.05;2.15;;;;;;;;;;4991518;28;20227;-73
2022/07/09 06:31:31;;;;;;;5.82;2.13;;;;;;;;;;4990324;28;20485;-75
2022/07/09 06:33:58;;;;;;;6.85;2.53;;;;;;;;;;4992046;28;20250;-75
2022/07/09 06:36:24;;;;;;;6.65;3.10;;;;;;;;;;4991966;28;20042;-73
2022/07/09 06:41:35;;;;;;;23.65;13.50;;;;;;;;;;4985944;28;20037;-74
2022/07/09 06:44:01;;;;;;;14.20;6.85;;;;;;;;;;4991402;28;20022;-73
2022/07/09 06:46:27;;;;;;;11.85;4.30;;;;;;;;;;4991359;28;20015;-74
2022/07/09 06:48:53;;;;;;;10.68;5.65;;;;;;;;;;5006644;28;20488;-74
2022/07/09 06:51:18;;;;;;;19.92;8.90;;;;;;;;;;4991939;28;20041;-74
2022/07/09 06:53:44;;;;;;;14.98;9.30;;;;;;;;;;4992591;28;20034;-74
2022/07/09 06:56:10;;;;;;;21.85;10.95;;;;;;;;;;4992271;28;20030;-74
2022/07/09 06:58:39;;;;;;;12.95;6.28;;;;;;;;;;4991143;28;20365;-73
2022/07/09 07:01:05;;;;;;;21.50;10.70;;;;;;;;;;4989779;28;20085;-75
2022/07/09 07:03:31;;;;;;;7.88;4.10;;;;;;;;;;4987815;28;20030;-73
2022/07/09 07:05:57;;;;;;;7.97;4.55;;;;;;;;;;4991115;28;20096;-74
2022/07/09 07:08:23;;;;;;;10.75;4.93;;;;;;;;;;4991138;28;20076;-72
2022/07/09 07:10:49;;;;;;;15.80;5.65;;;;;;;;;;4991102;28;20400;-75
2022/07/09 07:13:15;;;;;;;6.38;3.70;;;;;;;;;;4990968;28;20029;-73
2022/07/09 07:15:41;;;;;;;9.20;5.28;;;;;;;;;;4990603;28;20102;-73
2022/07/09 07:18:07;;;;;;;8.90;4.15;;;;;;;;;;4988487;28;20596;-73
2022/07/09 07:20:33;;;;;;;9.38;4.40;;;;;;;;;;4987588;28;20104;-74
2022/07/09 07:22:59;;;;;;;8.38;3.72;;;;;;;;;;4990818;28;20421;-74
2022/07/09 07:25:25;;;;;;;12.13;4.68;;;;;;;;;;4991569;28;20030;-71
2022/07/09 07:27:51;;;;;;;6.57;3.90;;;;;;;;;;4990899;28;20041;-70
2022/07/09 07:30:17;;;;;;;9.80;4.32;;;;;;;;;;5005769;28;20025;-70
2022/07/09 07:32:43;;;;;;;10.23;4.50;;;;;;;;;;4990145;28;20081;-70
2022/07/09 07:35:09;;;;;;;8.55;4.15;;;;;;;;;;4991224;28;20035;-70
2022/07/09 07:37:35;;;;;;;5.97;4.13;;;;;;;;;;4991092;28;20110;-70
2022/07/09 07:40:02;;;;;;;7.63;4.60;;;;;;;;;;4991210;28;20113;-70
2022/07/09 07:42:28;;;;;;;8.02;4.53;;;;;;;;;;4990682;28;20069;-69
2022/07/09 07:44:53;;;;;;;7.05;3.65;;;;;;;;;;4989360;28;20097;-72
2022/07/09 07:47:19;;;;;;;8.50;3.60;;;;;;;;;;4987930;28;20062;-69
2022/07/09 07:49:45;;;;;;;8.52;3.22;;;;;;;;;;4989314;28;20431;-71
2022/07/09 07:52:12;;;;;;;4.72;3.17;;;;;;;;;;4989223;28;20536;-70
2022/07/09 07:54:38;;;;;;;7.90;3.10;;;;;;;;;;4989457;28;20065;-70
2022/07/09 07:57:04;;;;;;;8.82;3.13;;;;;;;;;;4988044;28;20053;-69
2022/07/09 07:59:30;;;;;;;5.97;2.90;;;;;;;;;;4992895;28;20085;-70
2022/07/09 08:01:56;;;;;;;6.22;3.13;;;;;;;;;;4994714;28;20030;-70
2022/07/09 08:04:22;;;;;;;11.23;3.70;;;;;;;;;;4994610;28;20085;-70
2022/07/09 08:06:48;;;;;;;8.93;4.28;;;;;;;;;;4994682;28;20038;-71
2022/07/09 08:09:14;;;;;;;8.35;4.03;;;;;;;;;;4994262;28;20018;-69
2022/07/09 08:11:40;;;;;;;6.47;3.50;;;;;;;;;;4993144;28;20022;-69
2022/07/09 08:14:07;;;;;;;8.15;3.80;;;;;;;;;;4992824;28;20404;-70
2022/07/09 08:16:33;;;;;;;6.00;3.22;;;;;;;;;;4992561;28;20022;-68
2022/07/09 08:18:59;;;;;;;8.82;3.53;;;;;;;;;;4994002;28;20152;-68
2022/07/09 08:21:24;;;;;;;5.70;3.03;;;;;;;;;;4993737;28;20050;-67
2022/07/09 08:23:54;;;;;;;6.30;3.50;;;;;;;;;;4993340;28;20481;-70
2022/07/09 08:26:26;;;;;;;6.72;3.35;;;;;;;;;;4986255;28;20017;-75
2022/07/09 08:28:53;;;;;;;5.45;2.95;;;;;;;;;;4994269;28;20150;-70
2022/07/09 08:31:19;;;;;;;8.18;2.67;;;;;;;;;;4994681;28;20030;-67
2022/07/09 08:33:46;;;;;;;4.55;2.42;;;;;;;;;;4992211;28;20058;-67
2022/07/09 08:36:12;;;;;;;4.78;2.20;;;;;;;;;;4994645;28;20037;-74
2022/07/09 08:38:38;;;;;;;5.32;2.20;;;;;;;;;;4994048;28;20035;-70
2022/07/09 08:41:05;;;;;;;5.43;1.90;;;;;;;;;;4994040;28;20031;-73
2022/07/09 08:43:57;;;;;;;87.43;56.28;;;;;;;;;;4994523;28;20492;-71
2022/07/09 08:46:44;;;;;;;;;;;;;;;;;;4974163;28;20037;-71
2022/07/09 08:49:10;;;;;;;5.65;2.95;;;;;;;;;;4992167;28;19909;-69
2022/07/09 08:51:45;;;;;;;4.20;1.73;;;;;;;;;;4994427;28;20026;-72
2022/07/09 08:54:17;;;;;;;7.50;2.13;;;;;;;;;;4992044;28;20057;-71
2022/07/09 08:56:50;;;;;;;45.55;34.20;;;;;;;;;;5009773;28;20030;-73
2022/07/09 08:59:19;;;;;;;19.05;14.07;;;;;;;;;;4993231;28;20065;-71
2022/07/09 09:01:48;;;;;;;12.32;7.22;;;;;;;;;;4994832;28;20113;-72
2022/07/09 09:04:17;;;;;;;16.65;8.23;;;;;;;;;;4993817;28;20081;-72
2022/07/09 09:06:43;;;;;;;15.38;5.80;;;;;;;;;;4994107;28;20105;-70
2022/07/09 09:09:11;;;;;;;11.27;2.47;;;;;;;;;;4995938;28;20081;-67
2022/07/09 09:11:37;;;;;;;6.00;2.28;;;;;;;;;;4994608;28;20085;-71
2022/07/09 09:14:04;;;;;;;5.55;1.70;;;;;;;;;;4994199;28;20555;-65
2022/07/09 09:16:31;;;;;;;3.70;1.83;;;;;;;;;;4994326;28;20026;-65
2022/07/09 09:18:57;;;;;;;3.55;1.98;;;;;;;;;;4994089;28;20118;-64
2022/07/09 09:21:24;;;;;;;5.57;1.55;;;;;;;;;;4994408;28;20031;-67
2022/07/09 09:23:52;;;;;;;8.40;2.00;;;;;;;;;;4994857;28;20026;-74
2022/07/09 09:26:21;;;;;;;3.38;1.80;;;;;;;;;;4994633;28;20477;-69
2022/07/09 09:28:47;;;;;;;3.55;1.48;;;;;;;;;;4992325;28;20029;-68
2022/07/09 09:31:26;;;;;;;7.30;1.80;;;;;;;;;;4992755;28;20188;-66
2022/07/09 09:33:56;;;;;;;3.53;1.60;;;;;;;;;;4993556;28;20046;-66
2022/07/09 09:36:31;;;;;;;6.65;1.55;;;;;;;;;;4992439;28;20037;-68
2022/07/09 09:39:12;;;;;;;5.53;1.52;;;;;;;;;;4993175;28;20061;-68
2022/07/09 09:41:39;;;;;;;2.38;1.33;;;;;;;;;;4993705;28;20031;-68
2022/07/09 09:44:08;;;;;;;3.92;1.70;;;;;;;;;;4976403;28;20034;-68
2022/07/09 09:46:35;;;;;;;6.38;2.28;;;;;;;;;;4993764;28;20029;-67
2022/07/09 09:49:02;;;;;;;6.80;2.22;;;;;;;;;;4992509;28;20026;-68
2022/07/09 09:51:30;;;;;;;6.07;2.40;;;;;;;;;;4992239;28;20104;-68
2022/07/09 09:53:57;;;;;;;4.60;1.77;;;;;;;;;;4991347;28;20623;-67
2022/07/09 09:56:24;;;;;;;4.32;1.85;;;;;;;;;;4992996;28;20144;-69
2022/07/09 09:58:51;;;;;;;12.85;3.05;;;;;;;;;;4992060;28;20061;-66
2022/07/09 10:01:17;;;;;;;2.42;1.58;;;;;;;;;;4992620;28;20026;-70
2022/07/09 10:03:44;;;;;;;5.43;2.17;;;;;;;;;;4992625;28;20022;-71
2022/07/09 10:06:10;;;;;;;4.68;1.55;;;;;;;;;;4990888;28;20030;-74
2022/07/09 10:08:36;;;;;;;2.80;1.60;;;;;;;;;;4992512;28;20018;-72
2022/07/09 10:11:02;;;;;;;4.13;1.67;;;;;;;;;;4991089;28;20026;-74
2022/07/09 10:13:28;;;;;;;5.00;1.70;;;;;;;;;;4992726;28;20456;-73
2022/07/09 10:15:55;;;;;;;3.22;1.73;;;;;;;;;;4992432;28;20106;-68
2022/07/09 10:21:08;;;;;;;3.88;1.50;;;;;;;;;;5027869;28;20075;-68
2022/07/09 10:23:37;;;;;;;4.57;1.95;;;;;;;;;;5029844;28;20025;-69
2022/07/09 10:26:03;;;;;;;2.58;1.70;;;;;;;;;;5031623;28;20458;-68
2022/07/09 10:28:30;;;;;;;5.00;1.70;;;;;;;;;;5030312;28;20049;-67
2022/07/09 10:31:06;;;;;;;5.60;1.70;;;;;;;;;;5011521;28;20052;-69
2022/07/09 10:33:34;;;;;;;5.80;1.85;;;;;;;;;;5010968;28;20087;-67
2022/07/09 10:36:09;;;;;;;2.90;2.00;;;;;;;;;;5011427;28;20456;-66
2022/07/09 10:38:38;;;;;;;5.25;1.77;;;;;;;;;;5011208;28;20030;-67
2022/07/09 10:41:04;;;;;;;4.13;1.70;;;;;;;;;;5011602;28;20038;-68
2022/07/09 10:43:46;;;;;;;1.90;1.73;;;;;;;;;;5011537;28;20057;-68
2022/07/09 10:46:12;;;;;;;5.25;1.95;;;;;;;;;;4996625;28;20026;-68
2022/07/09 10:48:38;;;;;;;4.07;1.52;;;;;;;;;;5010267;28;20076;-70
2022/07/09 10:51:05;;;;;;;3.85;1.33;;;;;;;;;;5010073;28;20264;-68
2022/07/09 10:53:31;;;;;;;5.13;1.60;;;;;;;;;;5009295;28;20477;-69
2022/07/09 10:55:57;;;;;;;2.30;1.30;;;;;;;;;;5009793;28;20453;-69
2022/07/09 10:58:24;;;;;;;2.72;1.55;;;;;;;;;;5009504;28;20503;-68
2022/07/09 11:01:00;;;;;;;2.15;1.42;;;;;;;;;;5007875;28;20030;-68
2022/07/09 11:03:30;;;;;;;146.25;130.18;;;;;;;;;;5009265;28;20061;-69
2022/07/09 11:05:57;;;;;;;63.45;44.10;;;;;;;;;;5011404;28;20502;-69
2022/07/09 11:08:23;;;;;;;11.40;8.15;;;;;;;;;;5011308;28;20392;-69
2022/07/09 11:10:49;;;;;;;66.63;42.20;;;;;;;;;;5011421;28;20392;-70
2022/07/09 11:13:15;;;;;;;13.68;7.05;;;;;;;;;;5010950;28;20037;-69
2022/07/09 11:15:41;;;;;;;429.20;295.63;;;;;;;;;;5011197;28;20026;-70
2022/07/09 11:18:07;;;;;;;115.70;60.83;;;;;;;;;;5009738;28;20026;-69
2022/07/09 11:20:37;;;;;;;71.50;44.15;;;;;;;;;;5009437;28;20026;-69
2022/07/09 11:23:03;;;;;;;23.88;14.55;;;;;;;;;;5010756;28;20018;-69
2022/07/09 11:25:29;;;;;;;15.52;9.32;;;;;;;;;;5010724;28;20033;-70
2022/07/09 11:27:59;;;;;;;86.05;53.42;;;;;;;;;;5010901;28;20072;-66
2022/07/09 11:30:26;;;;;;;117.85;73.47;;;;;;;;;;5009454;28;20030;-67
2022/07/09 11:32:52;;;;;;;82.65;50.47;;;;;;;;;;5008229;28;20030;-66
2022/07/09 11:35:44;;;;;;;30.20;18.67;;;;;;;;;;5014457;28;20030;-67
2022/07/09 11:38:11;;;;;;;8.10;4.85;;;;;;;;;;5011303;28;20097;-68
2022/07/09 11:40:37;;;;;;;29.15;15.73;;;;;;;;;;5014431;28;20026;-68
2022/07/09 11:43:12;;;;;;;16.58;8.82;;;;;;;;;;5015201;28;20105;-68
2022/07/09 11:45:39;;;;;;;10.82;6.25;;;;;;;;;;5015210;28;20054;-69
2022/07/09 11:48:09;;;;;;;7.50;4.25;;;;;;;;;;5014813;28;20273;-68
2022/07/09 11:50:45;;;;;;;8.60;5.38;;;;;;;;;;5014746;28;20029;-67
2022/07/09 11:53:22;;;;;;;11.95;3.83;;;;;;;;;;5014960;28;20026;-66
2022/07/09 11:56:00;;;;;;;4.60;1.88;;;;;;;;;;5015106;28;20515;-67
2022/07/09 11:58:26;;;;;;;1.98;1.30;;;;;;;;;;5014513;28;20061;-67
2022/07/09 12:00:52;;;;;;;4.70;1.75;;;;;;;;;;5014361;28;20030;-67
2022/07/09 12:03:24;;;;;;;4.30;2.38;;;;;;;;;;5014596;28;20026;-67
2022/07/09 12:05:51;;;;;;;3.75;1.98;;;;;;;;;;5014477;28;20483;-67
2022/07/09 12:08:26;;;;;;;6.45;2.13;;;;;;;;;;5014350;28;20057;-67
2022/07/09 12:10:52;;;;;;;3.70;1.92;;;;;;;;;;5014418;28;20026;-67
2022/07/09 12:13:18;;;;;;;4.07;2.08;;;;;;;;;;5014562;28;20080;-68
2022/07/09 12:15:44;;;;;;;3.88;2.25;;;;;;;;;;5014315;28;20055;-67
2022/07/09 12:18:10;;;;;;;4.00;1.65;;;;;;;;;;5014031;28;20022;-67
2022/07/09 12:20:36;;;;;;;3.00;1.67;;;;;;;;;;5014023;28;20036;-68
2022/07/09 12:23:02;;;;;;;2.42;1.48;;;;;;;;;;5014096;28;20022;-68
2022/07/09 12:25:28;;;;;;;1.20;1.05;;;;;;;;;;5014195;28;20401;-68
2022/07/09 12:27:54;;;;;;;2.17;1.50;;;;;;;;;;5014040;28;20491;-68
2022/07/09 12:30:20;;;;;;;2.85;1.42;;;;;;;;;;5014316;28;20030;-67
2022/07/09 12:32:47;;;;;;;1.38;1.27;;;;;;;;;;5014179;28;20025;-65
2022/07/09 12:35:13;;;;;;;2.30;1.50;;;;;;;;;;5014166;28;20030;-68
2022/07/09 12:37:39;;;;;;;2.50;1.40;;;;;;;;;;5013619;28;20025;-68
2022/07/09 12:40:06;;;;;;;2.95;1.40;;;;;;;;;;5013355;28;20105;-68
2022/07/09 12:42:32;;;;;;;3.65;1.90;;;;;;;;;;5014030;28;20108;-68
2022/07/09 12:44:59;;;;;;;2.70;1.45;;;;;;;;;;5013587;28;20022;-68
2022/07/09 12:47:25;;;;;;;2.70;1.20;;;;;;;;;;5013524;28;20021;-68
2022/07/09 12:49:51;;;;;;;4.07;1.40;;;;;;;;;;5013614;28;20400;-68
2022/07/09 12:52:17;;;;;;;1.73;1.10;;;;;;;;;;5013415;28;20021;-68
2022/07/09 12:54:43;;;;;;;1.80;1.30;;;;;;;;;;5013445;28;20037;-68
2022/07/09 12:57:10;;;;;;;4.45;1.55;;;;;;;;;;5013536;28;20500;-66
2022/07/09 12:59:36;;;;;;;1.45;1.20;;;;;;;;;;5013523;28;20025;-68
2022/07/09 13:02:02;;;;;;;1.65;1.40;;;;;;;;;;5013548;28;20057;-68
2022/07/09 13:04:28;;;;;;;2.42;1.40;;;;;;;;;;5012370;28;20080;-68
2022/07/09 13:06:54;;;;;;;2.55;1.48;;;;;;;;;;5013525;28;20033;-68
2022/07/09 13:09:20;;;;;;;3.35;1.48;;;;;;;;;;5013053;28;20026;-68
2022/07/09 13:11:48;;;;;;;3.13;1.60;;;;;;;;;;5013497;28;20026;-68
2022/07/09 13:14:14;;;;;;;1.25;1.10;;;;;;;;;;5013333;28;20076;-68
2022/07/09 13:16:40;;;;;;;3.38;1.40;;;;;;;;;;5013421;28;20528;-68
2022/07/09 13:19:06;;;;;;;5.40;2.53;;;;;;;;;;5013338;28;20034;-67
2022/07/09 13:21:32;;;;;;;2.17;1.50;;;;;;;;;;5014115;28;20022;-67
2022/07/09 13:23:58;;;;;;;2.30;1.30;;;;;;;;;;5013185;28;20030;-68
2022/07/09 13:26:24;;;;;;;4.25;1.63;;;;;;;;;;5013963;28;20108;-67
2022/07/09 13:28:50;;;;;;;4.32;1.05;;;;;;;;;;5013474;28;20026;-68
2022/07/09 13:31:16;;;;;;;3.30;1.23;;;;;;;;;;5014197;28;20030;-67
2022/07/09 13:33:42;;;;;;;6.10;1.70;;;;;;;;;;5013847;28;20022;-68
2022/07/09 13:36:08;;;;;;;4.95;2.65;;;;;;;;;;5013069;28;20444;-67
2022/07/09 13:38:35;;;;;;;3.03;1.70;;;;;;;;;;5011178;28;20081;-66
2022/07/09 13:41:01;;;;;;;2.50;1.42;;;;;;;;;;5012828;28;20022;-66
2022/07/09 13:43:27;;;;;;;2.80;1.75;;;;;;;;;;5012841;28;20018;-67
2022/07/09 13:45:57;;;;;;;3.28;2.25;;;;;;;;;;5012572;28;20472;-69
2022/07/09 13:48:24;;;;;;;3.90;1.80;;;;;;;;;;5012264;28;20475;-67
2022/07/09 13:50:50;;;;;;;3.70;1.90;;;;;;;;;;5012251;28;20026;-68
2022/07/09 13:53:16;;;;;;;4.80;2.10;;;;;;;;;;5012478;28;20041;-68
2022/07/09 13:55:43;;;;;;;2.47;1.80;;;;;;;;;;5012090;28;20507;-68
2022/07/09 13:58:09;;;;;;;3.40;1.95;;;;;;;;;;5012210;28;20495;-68
2022/07/09 14:00:35;;;;;;;2.67;1.80;;;;;;;;;;5011083;28;20026;-66
2022/07/09 14:03:01;;;;;;;2.88;1.83;;;;;;;;;;5010774;28;20152;-67
2022/07/09 14:05:28;;;;;;;3.58;2.00;;;;;;;;;;5012114;28;20030;-67
2022/07/09 14:07:54;;;;;;;3.22;1.80;;;;;;;;;;5012003;28;20105;-67
2022/07/09 14:10:20;;;;;;;3.70;1.85;;;;;;;;;;5012334;28;20369;-67
2022/07/09 14:12:47;;;;;;;3.33;1.70;;;;;;;;;;5012425;28;20037;-68
2022/07/09 14:15:13;;;;;;;4.45;2.33;;;;;;;;;;5012270;28;20018;-68
2022/07/09 14:17:40;;;;;;;2.95;2.20;;;;;;;;;;5011173;28;20049;-68
2022/07/09 14:20:07;;;;;;;5.30;2.53;;;;;;;;;;5011504;28;20025;-68
2022/07/09 14:22:33;;;;;;;2.75;2.10;;;;;;;;;;5012002;28;20443;-67
2022/07/09 14:24:59;;;;;;;3.78;2.60;;;;;;;;;;5012354;28;20052;-66
2022/07/09 14:27:25;;;;;;;5.93;2.30;;;;;;;;;;5011639;28;20033;-67
2022/07/09 14:29:51;;;;;;;4.57;2.45;;;;;;;;;;5012098;28;20030;-67
2022/07/09 14:32:17;;;;;;;4.18;2.45;;;;;;;;;;5012025;28;20032;-67
2022/07/09 14:34:43;;;;;;;2.92;2.08;;;;;;;;;;5010436;28;20025;-68
2022/07/09 14:37:09;;;;;;;10.10;2.45;;;;;;;;;;5011741;28;20022;-67
2022/07/09 14:39:38;;;;;;;6.07;2.70;;;;;;;;;;5011866;28;20618;-68